Time;durP1;ratioP1;P1;durP2;ratioP2;P2;SDS_P1;SDS_P2;PMS_P1;PMS_P2;Temp;Humidity;BMP_temperature;BMP_pressure;BME280_temperature;BME280_humidity;BME280_pressure;Samples;Min_cycle;Max_cycle;Signal;HPM_P1;HPM_P2
2021/12/07 05:02:40;;;;;;;5.30;3.90;;;2.80;99.90;;;;;;4954891;29;20491;-78
2021/12/07 05:05:12;;;;;;;8.83;4.20;;;2.80;99.90;;;;;;4957226;28;20500;-78
2021/12/07 05:07:45;;;;;;;6.20;3.50;;;2.80;99.90;;;;;;4957470;29;20463;-78
2021/12/07 05:10:23;;;;;;;5.50;3.10;;;2.80;99.90;;;;;;4956463;28;20488;-78
2021/12/07 05:15:57;;;;;;;4.67;3.80;;;2.90;99.90;;;;;;4994983;23;20495;-81
2021/12/07 05:18:39;;;;;;;5.00;3.67;;;2.90;99.90;;;;;;4954945;29;20441;-81
2021/12/07 05:23:58;;;;;;;4.70;4.00;;;3.00;99.90;;;;;;4956103;29;20983;-81
2021/12/07 05:40:09;;;;;;;8.80;3.87;;;3.10;99.90;;;;;;4958515;29;20620;-80
2021/12/07 05:42:37;;;;;;;4.33;3.70;;;3.00;99.90;;;;;;4958722;28;20461;-80
2021/12/07 05:45:05;;;;;;;4.60;3.40;;;3.00;99.90;;;;;;4958109;28;20511;-79
2021/12/07 05:47:32;;;;;;;5.47;3.37;;;3.00;99.90;;;;;;4959184;29;20528;-80
2021/12/07 05:50:00;;;;;;;4.20;3.03;;;3.00;99.90;;;;;;4958012;29;20556;-80
2021/12/07 05:52:27;;;;;;;5.03;3.17;;;3.00;99.90;;;;;;4958556;29;20540;-80
2021/12/07 05:54:54;;;;;;;5.13;3.20;;;2.90;99.90;;;;;;4958869;28;20555;-80
2021/12/07 05:57:23;;;;;;;4.50;3.20;;;2.90;99.90;;;;;;4958002;29;21048;-81
2021/12/07 05:59:50;;;;;;;2.70;2.50;;;2.90;99.90;;;;;;4958304;29;20532;-79
2021/12/07 06:02:17;;;;;;;5.47;2.47;;;3.00;99.90;;;;;;4958696;29;20479;-79
2021/12/07 06:04:44;;;;;;;4.30;2.70;;;3.00;99.90;;;;;;4957805;28;21063;-76
2021/12/07 06:07:13;;;;;;;4.23;2.93;;;2.90;99.90;;;;;;4956404;29;20528;-76
2021/12/07 06:09:40;;;;;;;4.47;3.40;;;2.90;99.90;;;;;;4947681;29;20449;-76
2021/12/07 06:12:08;;;;;;;4.73;2.80;;;2.90;99.90;;;;;;4956634;29;21044;-75
2021/12/07 06:14:41;;;;;;;5.50;3.60;;;2.90;99.90;;;;;;4956416;29;20535;-75
2021/12/07 06:17:08;;;;;;;4.13;3.37;;;2.90;99.90;;;;;;4956316;28;20488;-76
2021/12/07 06:19:35;;;;;;;3.70;3.30;;;2.90;99.90;;;;;;4956320;29;20547;-76
2021/12/07 06:22:03;;;;;;;5.37;3.90;;;2.90;99.90;;;;;;4956607;29;20549;-76
2021/12/07 06:24:32;;;;;;;3.50;3.20;;;2.90;99.90;;;;;;4956284;29;20500;-77
2021/12/07 06:26:59;;;;;;;11.23;4.40;;;2.90;99.90;;;;;;4956345;29;20449;-77
2021/12/07 06:29:26;;;;;;;4.60;4.03;;;2.90;99.90;;;;;;4955998;29;20499;-76
2021/12/07 06:31:54;;;;;;;8.60;3.93;;;2.90;99.90;;;;;;4956069;29;20452;-77
2021/12/07 06:34:21;;;;;;;4.97;3.37;;;2.90;99.90;;;;;;4956306;29;20453;-76
2021/12/07 06:36:48;;;;;;;5.83;3.60;;;2.90;99.90;;;;;;4956255;29;20540;-77
2021/12/07 06:39:16;;;;;;;7.70;3.60;;;2.90;99.90;;;;;;4955976;29;20528;-76
2021/12/07 06:41:44;;;;;;;5.73;4.27;;;2.90;99.90;;;;;;4954251;28;20453;-76
2021/12/07 06:44:11;;;;;;;4.33;3.93;;;2.90;99.90;;;;;;4954465;29;20591;-77
2021/12/07 06:46:38;;;;;;;8.60;4.27;;;2.90;99.90;;;;;;4954810;28;20579;-77
2021/12/07 06:49:05;;;;;;;9.60;4.93;;;2.90;99.90;;;;;;4955812;28;20463;-77
2021/12/07 06:51:32;;;;;;;8.70;5.33;;;2.80;99.90;;;;;;4955859;29;20509;-75
2021/12/07 06:53:59;;;;;;;16.40;7.10;;;2.90;99.90;;;;;;4955566;29;20492;-76
2021/12/07 06:56:28;;;;;;;12.67;5.73;;;2.80;99.90;;;;;;4955752;29;20559;-75
2021/12/07 06:58:56;;;;;;;9.70;5.60;;;2.90;99.90;;;;;;4955475;29;20453;-75
2021/12/07 07:01:23;;;;;;;8.63;4.70;;;2.90;99.90;;;;;;4955844;29;20453;-75
2021/12/07 07:03:50;;;;;;;8.70;4.00;;;2.90;99.90;;;;;;4955480;29;20544;-76
2021/12/07 07:06:17;;;;;;;10.00;3.80;;;2.90;99.90;;;;;;4955656;29;20559;-76
2021/12/07 07:08:45;;;;;;;6.77;3.87;;;2.90;99.90;;;;;;4955618;29;20544;-76
2021/12/07 07:11:12;;;;;;;6.57;3.57;;;2.90;99.90;;;;;;4955432;29;20539;-75
2021/12/07 07:13:39;;;;;;;6.33;3.80;;;2.90;99.90;;;;;;4955213;28;20504;-76
2021/12/07 07:16:07;;;;;;;8.07;3.53;;;2.90;99.90;;;;;;4955273;29;20491;-75
2021/12/07 07:18:35;;;;;;;11.87;4.30;;;2.90;99.90;;;;;;4955214;29;21027;-75
2021/12/07 07:21:02;;;;;;;8.20;3.70;;;3.00;99.90;;;;;;4955157;29;20463;-75
2021/12/07 07:23:34;;;;;;;7.40;4.00;;;3.00;99.90;;;;;;4955230;29;20452;-76
2021/12/07 07:26:01;;;;;;;7.03;4.30;;;3.00;99.90;;;;;;4955067;29;20492;-76
2021/12/07 07:28:31;;;;;;;7.27;3.47;;;3.00;99.90;;;;;;4955120;29;20473;-76
2021/12/07 07:30:58;;;;;;;8.20;4.47;;;3.00;99.90;;;;;;4955079;29;20449;-76
2021/12/07 07:33:30;;;;;;;9.00;4.00;;;3.00;99.90;;;;;;4955185;29;20496;-76
2021/12/07 07:35:57;;;;;;;7.90;3.40;;;3.10;99.90;;;;;;4954959;29;21048;-75
2021/12/07 07:38:24;;;;;;;13.13;3.50;;;3.10;99.90;;;;;;4954683;29;20536;-75
2021/12/07 07:40:51;;;;;;;15.50;3.37;;;3.20;99.90;;;;;;4954901;29;20539;-76
2021/12/07 07:43:19;;;;;;;8.37;2.83;;;3.20;99.90;;;;;;4954962;29;20459;-75
2021/12/07 07:45:47;;;;;;;9.30;3.40;;;3.20;99.90;;;;;;4954538;29;20930;-76
2021/12/07 07:48:14;;;;;;;6.00;3.23;;;3.20;99.90;;;;;;4954495;29;20668;-76
2021/12/07 07:50:43;;;;;;;6.00;3.10;;;3.20;99.90;;;;;;4954290;29;20754;-76
2021/12/07 07:53:10;;;;;;;5.63;2.80;;;3.20;99.90;;;;;;4954098;29;20535;-76
2021/12/07 07:55:42;;;;;;;8.73;3.77;;;3.20;99.90;;;;;;4954384;29;20642;-77
2021/12/07 07:58:11;;;;;;;6.37;3.07;;;3.20;99.90;;;;;;4954422;28;20787;-77
2021/12/07 08:00:42;;;;;;;7.40;3.00;;;3.30;99.90;;;;;;4954234;29;20789;-77
2021/12/07 08:03:09;;;;;;;8.20;3.67;;;3.20;99.90;;;;;;4954679;29;20540;-76
2021/12/07 08:05:36;;;;;;;3.80;3.20;;;3.20;99.90;;;;;;4954245;29;20580;-77
2021/12/07 08:08:06;;;;;;;8.13;3.43;;;3.20;99.90;;;;;;4954561;29;21182;-76
2021/12/07 08:10:34;;;;;;;6.63;2.73;;;3.30;99.90;;;;;;4953136;29;20544;-76
2021/12/07 08:13:05;;;;;;;16.50;3.37;;;3.30;99.90;;;;;;4954534;29;20539;-76
2021/12/07 08:15:36;;;;;;;11.23;3.80;;;3.30;99.90;;;;;;4954028;29;20485;-77
2021/12/07 08:18:04;;;;;;;7.50;3.30;;;3.40;99.90;;;;;;4954195;29;20664;-76
2021/12/07 08:20:33;;;;;;;9.20;3.70;;;3.40;99.90;;;;;;4954157;29;20539;-76
2021/12/07 08:23:04;;;;;;;8.77;3.00;;;3.40;99.90;;;;;;4954361;29;20463;-76
2021/12/07 08:25:33;;;;;;;7.03;3.80;;;3.50;99.90;;;;;;4953988;29;20579;-77
2021/12/07 08:28:00;;;;;;;10.70;3.43;;;3.50;99.90;;;;;;4954155;29;20492;-77
2021/12/07 08:30:27;;;;;;;10.27;3.80;;;3.60;99.90;;;;;;4953607;29;20479;-76
2021/12/07 08:32:54;;;;;;;13.57;3.80;;;3.60;99.90;;;;;;4954074;29;20556;-76
2021/12/07 08:35:22;;;;;;;8.70;3.33;;;3.60;99.90;;;;;;4954220;29;20556;-76
2021/12/07 08:37:51;;;;;;;6.53;3.00;;;3.60;99.90;;;;;;4954212;29;20532;-76
2021/12/07 08:40:20;;;;;;;13.27;3.97;;;3.70;99.90;;;;;;4953862;29;20543;-76
2021/12/07 08:42:50;;;;;;;8.83;3.40;;;3.70;99.90;;;;;;4953859;29;20535;-76
2021/12/07 08:45:23;;;;;;;23.90;3.73;;;3.70;99.90;;;;;;4953879;29;20520;-76
2021/12/07 08:47:52;;;;;;;8.40;3.60;;;3.70;99.90;;;;;;4953853;29;20972;-76
2021/12/07 08:50:22;;;;;;;10.67;3.60;;;3.80;99.90;;;;;;4953623;29;20488;-76
2021/12/07 08:52:51;;;;;;;7.40;4.20;;;3.80;99.90;;;;;;4953861;29;20898;-76
2021/12/07 09:00:55;;;;;;;10.30;4.37;;;3.90;99.90;;;;;;4953707;29;20427;-70
2021/12/07 09:03:22;;;;;;;7.60;3.50;;;3.90;99.90;;;;;;4953849;28;20504;-76
2021/12/07 09:05:49;;;;;;;11.43;3.07;;;3.90;99.90;;;;;;4953418;29;20583;-76
2021/12/07 09:08:17;;;;;;;6.77;3.13;;;3.90;99.90;;;;;;4953748;28;20463;-76
2021/12/07 09:10:44;;;;;;;12.40;3.60;;;4.00;99.90;;;;;;4957071;28;20488;-76
2021/12/07 09:13:14;;;;;;;9.70;3.17;;;4.00;99.90;;;;;;4957707;29;20488;-76
2021/12/07 09:15:41;;;;;;;6.50;2.60;;;4.00;99.90;;;;;;4957592;29;20511;-76
2021/12/07 09:18:09;;;;;;;10.20;3.07;;;4.00;99.90;;;;;;4956963;29;20544;-76
2021/12/07 09:20:44;;;;;;;6.17;2.80;;;4.00;99.90;;;;;;4956157;29;20539;-76
2021/12/07 09:23:13;;;;;;;5.30;2.50;;;4.10;99.90;;;;;;4956602;28;21141;-76
2021/12/07 09:25:40;;;;;;;11.77;3.53;;;4.10;99.90;;;;;;4956347;29;21020;-76
2021/12/07 09:28:07;;;;;;;6.83;3.10;;;4.10;99.90;;;;;;4956532;29;20527;-76
2021/12/07 09:30:39;;;;;;;4.97;2.47;;;4.10;99.90;;;;;;4956149;29;20545;-76
2021/12/07 09:33:06;;;;;;;12.73;2.83;;;4.10;99.90;;;;;;4956285;28;20499;-76
2021/12/07 09:35:35;;;;;;;13.47;2.60;;;4.20;99.90;;;;;;4955810;29;20555;-75
2021/12/07 09:38:05;;;;;;;10.50;3.00;;;4.10;99.90;;;;;;4955685;29;20957;-75
2021/12/07 09:40:32;;;;;;;7.53;2.60;;;4.20;99.90;;;;;;4955908;28;20547;-75
2021/12/07 09:42:59;;;;;;;7.53;3.03;;;4.10;99.90;;;;;;4956249;29;20552;-75
2021/12/07 09:45:30;;;;;;;8.00;2.80;;;4.10;99.90;;;;;;4955757;29;20583;-75
2021/12/07 09:48:05;;;;;;;8.13;2.60;;;4.20;99.90;;;;;;4956203;29;20457;-75
2021/12/07 09:50:34;;;;;;;11.67;2.80;;;4.20;99.90;;;;;;4955929;29;20576;-75
2021/12/07 09:53:01;;;;;;;8.63;3.47;;;4.20;99.90;;;;;;4955888;29;20957;-75
2021/12/07 09:55:29;;;;;;;10.63;2.60;;;4.20;99.90;;;;;;4955902;29;20508;-75
2021/12/07 09:57:56;;;;;;;9.73;2.67;;;4.30;99.90;;;;;;4955648;29;21028;-75
2021/12/07 10:00:25;;;;;;;5.07;2.73;;;4.30;99.90;;;;;;4955563;29;20846;-75
2021/12/07 10:02:52;;;;;;;11.10;2.60;;;4.30;99.90;;;;;;4955854;29;20540;-75
2021/12/07 10:05:22;;;;;;;8.63;2.67;;;4.30;99.90;;;;;;4955703;29;20531;-75
2021/12/07 10:07:51;;;;;;;6.37;2.83;;;4.30;99.90;;;;;;4955795;29;20535;-75
2021/12/07 10:10:21;;;;;;;10.63;2.93;;;4.40;99.90;;;;;;4955308;29;20540;-75
2021/12/07 10:12:48;;;;;;;10.23;3.30;;;4.40;99.90;;;;;;4955618;29;20468;-76
2021/12/07 10:15:17;;;;;;;7.93;2.70;;;4.50;99.90;;;;;;4955510;29;20879;-76
2021/12/07 10:17:44;;;;;;;9.10;2.77;;;4.50;99.90;;;;;;4955689;29;20493;-76
2021/12/07 10:20:31;;;;;;;16.70;2.67;;;4.50;99.90;;;;;;4955311;28;20483;-76
2021/12/07 10:23:04;;;;;;;5.17;2.50;;;4.60;99.90;;;;;;4955127;29;20460;-76
2021/12/07 10:25:31;;;;;;;4.73;2.30;;;4.60;99.90;;;;;;4955273;28;21056;-76
2021/12/07 10:27:58;;;;;;;14.20;3.27;;;4.60;99.90;;;;;;4955369;28;20905;-76
2021/12/07 10:30:27;;;;;;;8.97;2.57;;;4.60;99.90;;;;;;4955305;29;20536;-76
2021/12/07 10:32:59;;;;;;;7.90;2.30;;;4.60;99.90;;;;;;4955321;29;20460;-77
2021/12/07 10:35:33;;;;;;;10.07;3.03;;;4.70;99.90;;;;;;4954946;29;20469;-77
2021/12/07 10:38:11;;;;;;;6.73;2.77;;;4.70;99.90;;;;;;4955399;28;20535;-76
2021/12/07 10:40:55;;;;;;;12.40;3.00;;;4.80;99.90;;;;;;4955310;29;20547;-77
2021/12/07 10:43:40;;;;;;;7.90;3.00;;;4.80;99.90;;;;;;4945495;29;20532;-77
2021/12/07 10:46:25;;;;;;;12.53;2.73;;;4.80;99.90;;;;;;4936957;29;20588;-77
2021/12/07 10:49:19;;;;;;;13.53;4.00;;;4.80;99.90;;;;;;4936609;29;20552;-77
2021/12/07 10:52:00;;;;;;;4.50;2.60;;;4.90;99.90;;;;;;4936951;29;20461;-77
2021/12/07 10:54:28;;;;;;;4.93;2.87;;;5.10;99.90;;;;;;4936869;29;20545;-77
2021/12/07 10:56:56;;;;;;;5.87;2.20;;;5.30;99.90;;;;;;4936659;29;20449;-77
2021/12/07 10:59:23;;;;;;;4.50;1.53;;;5.40;99.90;;;;;;4936569;29;20544;-77
2021/12/07 11:01:53;;;;;;;7.60;2.17;;;5.60;99.90;;;;;;4936610;29;20536;-77
2021/12/07 11:04:24;;;;;;;7.73;1.90;;;5.80;99.90;;;;;;4936506;29;20472;-76
2021/12/07 11:07:11;;;;;;;4.33;1.77;;;5.90;99.90;;;;;;4938878;29;20584;-76
2021/12/07 11:09:42;;;;;;;4.50;2.20;;;6.00;99.90;;;;;;4948274;29;20453;-76
2021/12/07 11:12:11;;;;;;;4.13;1.80;;;6.00;99.90;;;;;;4955632;29;20543;-76
2021/12/07 11:17:07;;;;;;;8.60;2.10;;;6.10;99.90;;;;;;4975957;23;20559;-72
2021/12/07 11:19:34;;;;;;;10.60;2.67;;;6.20;99.90;;;;;;4955252;28;20552;-72
2021/12/07 11:22:01;;;;;;;3.83;2.00;;;6.30;99.90;;;;;;4955243;28;20519;-72
2021/12/07 11:24:38;;;;;;;9.50;1.80;;;6.40;99.90;;;;;;4955051;28;20488;-72
2021/12/07 11:29:58;;;;;;;6.83;2.37;;;6.60;99.90;;;;;;4954990;29;20436;-72
2021/12/07 11:32:25;;;;;;;2.67;1.80;;;6.60;99.90;;;;;;4954769;28;20488;-72
2021/12/07 11:34:52;;;;;;;8.60;2.40;;;6.60;99.90;;;;;;4954990;28;20456;-72
2021/12/07 11:37:22;;;;;;;2.60;1.93;;;6.60;99.90;;;;;;4955035;28;20492;-72
2021/12/07 11:39:55;;;;;;;4.50;1.70;;;6.50;99.90;;;;;;4954983;29;20460;-72
2021/12/07 11:42:25;;;;;;;5.73;2.03;;;6.40;99.90;;;;;;4954787;28;21035;-72
2021/12/07 11:44:55;;;;;;;10.00;2.20;;;6.20;99.90;;;;;;4954853;28;20540;-72
2021/12/07 11:47:28;;;;;;;5.77;2.10;;;6.10;99.90;;;;;;4954931;28;20528;-72
2021/12/07 11:49:56;;;;;;;7.57;2.17;;;6.00;99.90;;;;;;4954614;28;20515;-72
2021/12/07 11:52:23;;;;;;;6.23;1.93;;;5.90;99.90;;;;;;4954639;28;20513;-72
2021/12/07 11:54:51;;;;;;;9.90;2.40;;;6.00;99.90;;;;;;4954558;28;20492;-72
2021/12/07 11:57:20;;;;;;;6.47;2.13;;;5.90;99.90;;;;;;4954669;28;20457;-72
2021/12/07 11:59:49;;;;;;;4.17;2.13;;;5.90;99.90;;;;;;4954425;28;20547;-72
2021/12/07 12:02:19;;;;;;;8.07;1.77;;;5.80;99.90;;;;;;4954698;28;20540;-74
2021/12/07 12:04:46;;;;;;;6.73;2.13;;;5.70;99.90;;;;;;4953775;29;20492;-74
2021/12/07 12:07:13;;;;;;;4.83;1.90;;;5.80;99.90;;;;;;4952554;29;20548;-74
2021/12/07 12:09:46;;;;;;;7.40;1.97;;;5.80;99.90;;;;;;4952749;29;20516;-74
2021/12/07 12:12:22;;;;;;;8.43;2.30;;;5.80;99.90;;;;;;4953584;28;20483;-74
2021/12/07 12:14:59;;;;;;;8.67;2.20;;;5.80;99.90;;;;;;4953341;28;20531;-73
2021/12/07 12:17:38;;;;;;;4.73;1.80;;;5.80;99.90;;;;;;4953197;28;20507;-73
2021/12/07 12:20:27;;;;;;;10.70;2.40;;;5.80;99.90;;;;;;4952947;28;20956;-74
2021/12/07 12:23:02;;;;;;;7.27;2.20;;;5.80;99.90;;;;;;4953265;28;20461;-74
2021/12/07 12:25:30;;;;;;;7.57;2.17;;;5.90;99.90;;;;;;4953193;28;20567;-74
2021/12/07 12:27:59;;;;;;;8.93;2.17;;;6.00;99.90;;;;;;4953110;28;20992;-74
2021/12/07 12:30:28;;;;;;;14.73;2.50;;;6.10;99.90;;;;;;4952809;28;20543;-74
2021/12/07 12:32:58;;;;;;;5.77;1.70;;;6.20;99.90;;;;;;4953079;28;20543;-73
2021/12/07 12:35:31;;;;;;;7.83;2.70;;;6.30;99.90;;;;;;4952997;29;20556;-74
2021/12/07 12:37:59;;;;;;;6.83;2.33;;;6.40;99.90;;;;;;4952902;28;21013;-74
2021/12/07 12:40:29;;;;;;;4.50;1.90;;;6.50;99.90;;;;;;4943256;28;20528;-74
2021/12/07 12:42:58;;;;;;;10.13;2.10;;;6.60;99.90;;;;;;4952517;28;20485;-74
2021/12/07 12:45:28;;;;;;;2.73;1.90;;;6.60;99.90;;;;;;4952678;28;20465;-74
2021/12/07 12:47:57;;;;;;;8.17;1.80;;;6.70;99.90;;;;;;4950634;28;20821;-74
2021/12/07 12:50:29;;;;;;;12.37;2.00;;;6.70;99.90;;;;;;4938104;28;20548;-74
2021/12/07 12:53:00;;;;;;;18.83;2.73;;;6.80;99.90;;;;;;4934679;29;20453;-74
2021/12/07 12:55:31;;;;;;;15.73;2.47;;;6.80;99.90;;;;;;4934847;29;20572;-75
2021/12/07 12:58:00;;;;;;;10.60;2.33;;;6.90;99.90;;;;;;4934656;29;20946;-74
2021/12/07 13:01:04;;;;;;;9.37;1.87;;;7.00;99.90;;;;;;4943745;29;20476;-74
2021/12/07 13:03:51;;;;;;;10.63;2.20;;;7.10;99.90;;;;;;4953673;29;20478;-75
2021/12/07 13:06:20;;;;;;;5.30;1.60;;;7.20;99.90;;;;;;4953592;28;20583;-74
2021/12/07 13:08:59;;;;;;;9.53;1.97;;;7.30;99.90;;;;;;4953600;28;20995;-74
2021/12/07 13:11:36;;;;;;;5.10;1.80;;;7.40;99.90;;;;;;4943810;28;20453;-75
2021/12/07 13:14:05;;;;;;;4.77;1.77;;;7.30;99.90;;;;;;4934560;29;20560;-73
2021/12/07 13:16:34;;;;;;;8.93;1.60;;;7.30;99.90;;;;;;4936141;29;20484;-74
2021/12/07 13:19:03;;;;;;;16.73;2.73;;;7.10;99.90;;;;;;4934283;29;20640;-74
2021/12/07 13:21:32;;;;;;;5.27;1.67;;;7.00;99.90;;;;;;4934363;29;20544;-75
2021/12/07 13:24:01;;;;;;;6.10;1.90;;;6.80;99.90;;;;;;4934300;29;20536;-74
2021/12/07 13:26:32;;;;;;;8.80;2.23;;;6.70;99.90;;;;;;4934109;29;21052;-74
2021/12/07 13:29:06;;;;;;;4.33;1.70;;;6.60;99.90;;;;;;4934383;29;20493;-74
2021/12/07 13:31:41;;;;;;;5.73;1.60;;;6.60;99.90;;;;;;4934472;29;20556;-74
2021/12/07 13:34:09;;;;;;;8.13;2.70;;;6.50;99.90;;;;;;4948113;29;20453;-75
2021/12/07 13:36:43;;;;;;;4.87;1.80;;;6.50;99.90;;;;;;4953273;28;20461;-74
2021/12/07 13:39:35;;;;;;;6.90;2.03;;;6.40;99.90;;;;;;4953129;28;20456;-74
2021/12/07 13:42:06;;;;;;;3.20;2.03;;;6.40;99.90;;;;;;4950332;29;20548;-74
2021/12/07 13:44:37;;;;;;;6.43;2.17;;;6.40;99.90;;;;;;4953331;28;20456;-74
2021/12/07 13:47:06;;;;;;;14.40;2.90;;;6.30;99.90;;;;;;4953094;28;20961;-74
2021/12/07 13:49:34;;;;;;;14.40;3.50;;;6.30;99.90;;;;;;4953293;28;20548;-74
2021/12/07 13:52:01;;;;;;;6.20;1.90;;;6.40;99.90;;;;;;4953801;28;20772;-74
2021/12/07 13:54:28;;;;;;;9.40;2.00;;;6.40;99.90;;;;;;4953449;28;20536;-74
2021/12/07 13:56:55;;;;;;;7.83;2.00;;;6.50;99.90;;;;;;4956407;28;20556;-75
2021/12/07 13:59:26;;;;;;;7.30;1.90;;;6.50;99.90;;;;;;4956617;28;20448;-74
2021/12/07 14:01:58;;;;;;;7.10;1.90;;;6.50;99.90;;;;;;4956806;28;20457;-71
2021/12/07 14:04:26;;;;;;;8.03;2.47;;;6.40;99.90;;;;;;4957277;28;20484;-72
2021/12/07 14:06:54;;;;;;;6.70;2.20;;;6.40;99.90;;;;;;4956755;28;21044;-72
2021/12/07 14:09:22;;;;;;;10.63;3.40;;;6.30;99.90;;;;;;4956660;28;20555;-75
2021/12/07 14:11:52;;;;;;;4.67;2.30;;;6.40;99.90;;;;;;4956503;28;20857;-74
2021/12/07 14:14:21;;;;;;;11.33;3.80;;;6.40;99.90;;;;;;4956501;28;20543;-74
2021/12/07 14:16:48;;;;;;;7.30;2.40;;;6.50;99.90;;;;;;4950544;28;20472;-73
2021/12/07 14:19:18;;;;;;;9.30;2.77;;;6.50;99.90;;;;;;4956231;28;20622;-74
2021/12/07 14:21:46;;;;;;;9.47;2.67;;;6.60;99.90;;;;;;4956467;28;20954;-74
2021/12/07 14:24:18;;;;;;;6.27;3.30;;;6.60;99.90;;;;;;4956309;28;20503;-74
2021/12/07 14:26:46;;;;;;;8.97;3.40;;;6.60;99.90;;;;;;4956066;28;20508;-74
2021/12/07 14:29:16;;;;;;;8.70;3.20;;;6.60;99.90;;;;;;4956368;28;20480;-74
2021/12/07 14:31:44;;;;;;;5.47;2.00;;;6.70;99.90;;;;;;4956479;28;20544;-74
2021/12/07 14:34:14;;;;;;;8.70;2.57;;;6.80;99.90;;;;;;4956256;29;20453;-74
2021/12/07 14:36:45;;;;;;;5.27;3.10;;;6.80;99.90;;;;;;4956067;28;20552;-74
2021/12/07 14:39:14;;;;;;;18.07;6.40;;;6.80;99.90;;;;;;4941063;28;20536;-74
2021/12/07 14:41:46;;;;;;;14.37;4.23;;;6.90;99.90;;;;;;4937186;29;20537;-72
2021/12/07 14:44:18;;;;;;;6.53;2.57;;;6.90;99.90;;;;;;4936198;29;20537;-74
2021/12/07 14:46:47;;;;;;;6.30;2.77;;;6.90;99.90;;;;;;4953323;28;20859;-74
2021/12/07 14:49:15;;;;;;;10.80;2.83;;;6.90;99.90;;;;;;4955798;28;20540;-74
2021/12/07 14:51:45;;;;;;;6.57;2.50;;;6.90;99.90;;;;;;4955572;28;20536;-74
2021/12/07 14:54:13;;;;;;;10.67;4.37;;;6.90;99.90;;;;;;4951661;29;20552;-74
2021/12/07 14:56:41;;;;;;;10.90;4.87;;;6.90;99.90;;;;;;4955402;28;20969;-74
2021/12/07 14:59:10;;;;;;;11.30;5.30;;;6.90;99.90;;;;;;4955418;28;20544;-74
2021/12/07 15:01:41;;;;;;;12.10;5.87;;;6.90;99.90;;;;;;4955210;28;20465;-75
2021/12/07 15:04:10;;;;;;;18.07;8.27;;;6.90;99.90;;;;;;4955693;28;20533;-75
2021/12/07 15:06:41;;;;;;;16.07;7.30;;;6.90;99.90;;;;;;4938949;28;20501;-73
2021/12/07 15:09:10;;;;;;;15.40;5.37;;;6.90;99.90;;;;;;4936175;29;20496;-75
2021/12/07 15:11:38;;;;;;;17.67;4.93;;;6.90;99.90;;;;;;4936723;29;20545;-74
2021/12/07 15:14:07;;;;;;;13.07;2.60;;;6.70;99.90;;;;;;4951220;28;20535;-74
2021/12/07 15:16:36;;;;;;;6.03;4.17;;;6.60;99.90;;;;;;4974663;28;20862;-75
2021/12/07 15:19:04;;;;;;;3.37;2.07;;;6.50;99.90;;;;;;4943635;28;20459;-71
2021/12/07 15:21:34;;;;;;;9.53;2.93;;;6.40;99.90;;;;;;4955518;28;20491;-71
2021/12/07 15:24:05;;;;;;;8.30;3.13;;;6.40;99.90;;;;;;4955376;28;20457;-73
2021/12/07 15:26:35;;;;;;;3.07;2.10;;;6.40;99.90;;;;;;4955205;28;20504;-74
2021/12/07 15:29:04;;;;;;;4.00;1.83;;;6.40;99.90;;;;;;4960045;28;20503;-73
2021/12/07 15:31:34;;;;;;;4.37;1.80;;;6.40;99.90;;;;;;4971824;28;20893;-73
2021/12/07 15:34:02;;;;;;;3.03;1.70;;;6.40;99.90;;;;;;4974422;28;20547;-73
2021/12/07 15:36:31;;;;;;;3.60;1.90;;;6.30;99.90;;;;;;4974363;28;20551;-74
2021/12/07 15:39:16;;;;;;;8.70;1.90;;;6.20;99.90;;;;;;4974193;28;21006;-73
2021/12/07 15:41:46;;;;;;;5.93;2.83;;;6.20;99.90;;;;;;4974276;28;20459;-74
2021/12/07 15:44:13;;;;;;;3.53;2.20;;;6.10;99.90;;;;;;4974606;28;20558;-73
2021/12/07 15:46:49;;;;;;;3.50;2.60;;;6.10;99.90;;;;;;4974277;28;20550;-73
2021/12/07 15:49:23;;;;;;;2.83;2.00;;;6.00;99.90;;;;;;4973833;28;20494;-74
2021/12/07 15:51:52;;;;;;;7.07;3.23;;;6.00;99.90;;;;;;4935722;29;20545;-73
2021/12/07 15:54:19;;;;;;;4.10;2.80;;;5.90;99.90;;;;;;4935570;29;20536;-73
2021/12/07 15:56:59;;;;;;;5.87;3.20;;;5.80;99.90;;;;;;4935688;29;20505;-73
2021/12/07 15:59:31;;;;;;;5.83;3.10;;;5.80;99.90;;;;;;4935466;29;20544;-74
2021/12/07 16:02:02;;;;;;;5.60;2.50;;;5.70;99.90;;;;;;4935677;29;20458;-77
2021/12/07 16:04:35;;;;;;;6.23;3.27;;;5.70;99.90;;;;;;4935563;29;20458;-77
2021/12/07 16:07:03;;;;;;;4.73;3.80;;;5.60;99.90;;;;;;4935373;29;20498;-77
2021/12/07 16:09:32;;;;;;;10.80;4.70;;;5.60;99.90;;;;;;4935329;29;20457;-77
2021/12/07 16:12:13;;;;;;;6.27;4.20;;;5.50;99.90;;;;;;4935491;29;20512;-77
2021/12/07 16:14:40;;;;;;;8.40;5.20;;;5.40;99.90;;;;;;4935441;29;20536;-78
2021/12/07 16:17:17;;;;;;;17.23;5.90;;;5.40;99.90;;;;;;4934953;29;20560;-77
2021/12/07 16:19:45;;;;;;;8.37;5.60;;;5.40;99.90;;;;;;4935044;29;20485;-77
2021/12/07 16:22:12;;;;;;;9.93;5.30;;;5.30;99.90;;;;;;4935086;29;20549;-77
2021/12/07 16:24:40;;;;;;;8.73;4.77;;;5.30;99.90;;;;;;4935052;29;20454;-77
2021/12/07 16:27:07;;;;;;;15.30;8.10;;;5.20;99.90;;;;;;4935089;29;20588;-77
2021/12/07 16:29:36;;;;;;;14.70;7.53;;;5.10;99.90;;;;;;4934757;29;20950;-78
2021/12/07 16:32:06;;;;;;;14.50;10.90;;;5.00;99.90;;;;;;4935213;29;20494;-77
2021/12/07 16:34:33;;;;;;;22.63;10.80;;;4.90;99.90;;;;;;4935181;29;20509;-77
2021/12/07 16:37:00;;;;;;;14.63;10.20;;;4.90;99.90;;;;;;4934892;29;20505;-77
2021/12/07 16:39:27;;;;;;;13.80;8.13;;;4.80;99.90;;;;;;4934673;29;20989;-77
2021/12/07 16:41:55;;;;;;;11.47;6.97;;;4.80;99.90;;;;;;4934890;29;20962;-77
2021/12/07 16:44:22;;;;;;;11.67;7.60;;;4.80;99.90;;;;;;4934693;29;20496;-77
2021/12/07 16:46:50;;;;;;;9.30;6.00;;;4.70;99.90;;;;;;4934629;29;20505;-77
2021/12/07 16:49:18;;;;;;;8.70;5.73;;;4.60;99.90;;;;;;4934698;29;20540;-77
2021/12/07 16:51:45;;;;;;;8.00;6.57;;;4.40;99.90;;;;;;4934451;29;20950;-77
2021/12/07 16:54:12;;;;;;;10.70;5.83;;;4.30;99.90;;;;;;4934576;29;21037;-77
2021/12/07 16:56:39;;;;;;;9.10;5.90;;;4.30;99.90;;;;;;4934439;29;20569;-77
2021/12/07 16:59:05;;;;;;;10.60;5.43;;;4.20;99.90;;;;;;4934377;29;20550;-77
2021/12/07 17:01:32;;;;;;;8.40;5.10;;;4.20;99.90;;;;;;4934791;29;20521;-77
2021/12/07 17:04:01;;;;;;;14.80;6.50;;;4.10;99.90;;;;;;4934696;29;20998;-78
2021/12/07 17:06:29;;;;;;;11.07;5.73;;;4.10;99.90;;;;;;4934970;29;20552;-77
2021/12/07 17:08:56;;;;;;;14.43;5.47;;;4.00;99.90;;;;;;4934305;29;20556;-78
2021/12/07 17:11:23;;;;;;;10.43;5.80;;;4.00;99.90;;;;;;4934640;29;20541;-77
2021/12/07 17:13:50;;;;;;;10.10;4.67;;;4.00;99.90;;;;;;4934984;29;20545;-77
2021/12/07 17:20:15;;;;;;;8.47;5.67;;;3.80;99.90;;;;;;4962860;29;20460;-80
2021/12/07 17:26:59;;;;;;;8.90;5.90;;;3.70;99.90;;;;;;4959829;28;20493;-81
2021/12/07 17:32:55;;;;;;;10.27;5.40;;;3.40;99.90;;;;;;4937296;29;20452;-80
2021/12/07 17:35:23;;;;;;;12.60;5.13;;;3.30;99.90;;;;;;4964526;28;20844;-80
2021/12/07 17:37:50;;;;;;;12.63;6.40;;;3.30;99.90;;;;;;4958231;28;20448;-79
2021/12/07 17:40:21;;;;;;;14.93;6.53;;;3.30;99.90;;;;;;4942485;29;20469;-79
2021/12/07 17:42:50;;;;;;;22.80;9.30;;;3.30;99.90;;;;;;4943470;29;20450;-80
2021/12/07 17:45:20;;;;;;;10.73;6.80;;;3.30;99.90;;;;;;4942864;29;20482;-79
2021/12/07 17:47:47;;;;;;;16.10;8.60;;;3.40;99.90;;;;;;4942571;29;20548;-80
2021/12/07 17:50:15;;;;;;;12.80;8.73;;;3.30;99.90;;;;;;4941864;29;20481;-79
2021/12/07 17:52:42;;;;;;;11.63;7.27;;;3.40;99.90;;;;;;4943055;29;20489;-79
2021/12/07 17:55:14;;;;;;;13.27;6.70;;;3.40;99.90;;;;;;4942337;29;20489;-79
2021/12/07 17:57:41;;;;;;;12.10;6.47;;;3.40;99.90;;;;;;4947542;29;20452;-79
2021/12/07 18:00:14;;;;;;;10.90;5.20;;;3.30;99.90;;;;;;4946658;29;20481;-78
2021/12/07 18:02:41;;;;;;;13.23;5.97;;;3.30;99.90;;;;;;4942860;29;20441;-79
2021/12/07 18:05:10;;;;;;;7.90;5.27;;;3.20;99.90;;;;;;4943534;29;20949;-78
2021/12/07 18:07:42;;;;;;;9.80;5.33;;;3.20;99.90;;;;;;4941985;29;20579;-78
2021/12/07 18:10:11;;;;;;;15.73;7.97;;;3.20;99.90;;;;;;4943522;29;20442;-79
2021/12/07 18:12:38;;;;;;;14.30;8.80;;;3.20;99.90;;;;;;4942737;29;20937;-78
2021/12/07 18:15:06;;;;;;;21.40;10.40;;;3.20;99.90;;;;;;4947147;29;20453;-78
2021/12/07 18:17:35;;;;;;;23.63;11.27;;;3.20;99.90;;;;;;4952581;29;20445;-79
2021/12/07 18:20:02;;;;;;;15.23;8.17;;;3.10;99.90;;;;;;4959873;29;20445;-79
2021/12/07 18:22:29;;;;;;;12.50;7.97;;;3.10;99.90;;;;;;4954716;29;20442;-78
2021/12/07 18:24:55;;;;;;;15.13;9.10;;;3.10;99.90;;;;;;4950028;29;20520;-79
2021/12/07 18:27:22;;;;;;;14.57;8.50;;;3.10;99.90;;;;;;4948239;29;20545;-79
2021/12/07 18:29:49;;;;;;;13.67;7.53;;;3.00;99.90;;;;;;4946321;29;20784;-78
2021/12/07 18:32:16;;;;;;;12.97;7.73;;;3.00;99.90;;;;;;4944943;29;20598;-78
2021/12/07 18:34:45;;;;;;;12.00;7.37;;;3.10;99.90;;;;;;4944398;29;20549;-78
2021/12/07 18:37:12;;;;;;;9.47;6.20;;;3.00;99.90;;;;;;4939656;29;20509;-78
2021/12/07 18:39:40;;;;;;;10.83;6.00;;;3.00;99.90;;;;;;4940807;29;20465;-80
2021/12/07 18:42:08;;;;;;;16.47;8.50;;;3.00;99.90;;;;;;4943023;29;20483;-79
2021/12/07 18:44:35;;;;;;;17.80;8.87;;;3.00;99.90;;;;;;4942701;29;20473;-79
2021/12/07 18:47:02;;;;;;;9.40;6.93;;;2.90;99.90;;;;;;4941840;29;20470;-79
2021/12/07 18:49:29;;;;;;;15.87;8.80;;;2.90;99.90;;;;;;4941548;29;20505;-79